createdAt,value
2023-05-13T00:01:45.786Z,4.20
2023-05-13T00:04:16.316Z,4.32
2023-05-13T00:06:43.872Z,4.33
2023-05-13T00:09:11.758Z,4.45
2023-05-13T00:11:39.379Z,4.32
2023-05-13T00:14:09.783Z,5.00
2023-05-13T00:16:37.563Z,4.60
2023-05-13T00:19:05.288Z,5.13
2023-05-13T00:21:33.880Z,5.37
2023-05-13T00:24:01.381Z,5.28
2023-05-13T00:26:28.977Z,5.03
2023-05-13T00:28:56.608Z,5.28
2023-05-13T00:31:24.441Z,5.07
2023-05-13T00:33:52.097Z,4.85
2023-05-13T00:36:19.713Z,5.07
2023-05-13T00:38:47.377Z,4.33
2023-05-13T00:41:15.185Z,5.20
2023-05-13T00:43:42.767Z,5.43
2023-05-13T00:46:10.436Z,4.90
2023-05-13T00:48:38.121Z,4.57
2023-05-13T00:51:05.852Z,4.75
2023-05-13T00:53:33.915Z,4.78
2023-05-13T00:56:02.036Z,4.53
2023-05-13T00:58:29.777Z,4.50
2023-05-13T01:01:11.543Z,4.40
2023-05-13T01:04:05.912Z,4.03
2023-05-13T01:06:39.457Z,4.53
2023-05-13T01:09:09.957Z,3.70
2023-05-13T01:11:38.217Z,4.30
2023-05-13T01:14:22.205Z,4.45
2023-05-13T01:16:54.345Z,4.15
2023-05-13T01:19:33.911Z,4.30
2023-05-13T01:22:01.743Z,4.60
2023-05-13T01:24:29.341Z,4.38
2023-05-13T01:26:57.098Z,4.20
2023-05-13T01:29:24.633Z,4.23
2023-05-13T01:31:52.322Z,3.95
2023-05-13T01:34:20.493Z,3.80
2023-05-13T01:36:48.482Z,4.07
2023-05-13T01:39:16.041Z,4.05
2023-05-13T01:41:45.059Z,3.90
2023-05-13T01:44:12.680Z,3.97
2023-05-13T01:46:40.340Z,3.83
2023-05-13T01:49:09.710Z,4.20
2023-05-13T01:51:38.053Z,4.25
2023-05-13T01:54:05.905Z,4.70
2023-05-13T01:56:33.581Z,4.50
2023-05-13T01:59:01.242Z,4.18
2023-05-13T02:01:28.812Z,4.40
2023-05-13T02:03:58.550Z,4.13
2023-05-13T02:06:27.980Z,4.32
2023-05-13T02:08:56.609Z,5.60
2023-05-13T02:11:24.280Z,4.87
2023-05-13T02:13:52.038Z,4.20
2023-05-13T02:16:19.746Z,4.28
2023-05-13T02:18:47.347Z,4.70
2023-05-13T02:21:14.985Z,4.47
2023-05-13T02:23:42.526Z,4.63
2023-05-13T02:26:10.159Z,4.40
2023-05-13T02:28:37.719Z,4.15
2023-05-13T02:31:06.778Z,3.72
2023-05-13T02:33:34.339Z,4.15
2023-05-13T02:36:01.991Z,4.10
2023-05-13T02:38:29.589Z,4.43
2023-05-13T02:40:57.193Z,4.15
2023-05-13T02:43:25.066Z,4.00
2023-05-13T02:45:52.670Z,4.55
2023-05-13T02:48:21.656Z,4.30
2023-05-13T02:50:49.196Z,4.20
2023-05-13T02:53:16.812Z,3.72
2023-05-13T02:55:44.414Z,3.92
2023-05-13T02:58:12.050Z,4.03
2023-05-13T03:00:39.566Z,4.40
2023-05-13T03:03:07.242Z,4.53
2023-05-13T03:05:34.900Z,3.88
2023-05-13T03:08:02.584Z,4.13
2023-05-13T03:10:30.204Z,4.40
2023-05-13T03:12:57.732Z,4.45
2023-05-13T03:15:25.417Z,4.40
2023-05-13T03:17:53.056Z,3.95
2023-05-13T03:20:20.877Z,4.43
2023-05-13T03:22:48.619Z,4.88
2023-05-13T03:25:16.446Z,4.38
2023-05-13T03:27:44.020Z,4.43
2023-05-13T03:30:11.865Z,4.72
2023-05-13T03:32:39.517Z,4.35
2023-05-13T03:35:07.289Z,4.17
2023-05-13T03:37:34.939Z,4.55
2023-05-13T03:40:02.539Z,4.90
2023-05-13T03:42:30.881Z,4.63
2023-05-13T03:44:58.444Z,4.90
2023-05-13T03:47:26.171Z,4.35
2023-05-13T03:49:53.681Z,4.53
2023-05-13T03:52:21.383Z,4.57
2023-05-13T03:54:48.984Z,4.63
2023-05-13T03:57:16.700Z,4.47
2023-05-13T03:59:44.362Z,4.77
2023-05-13T04:02:12.010Z,4.18
2023-05-13T04:04:40.282Z,4.80
2023-05-13T04:07:07.938Z,4.20
2023-05-13T04:09:35.611Z,4.23
2023-05-13T04:12:03.728Z,4.25
2023-05-13T04:14:35.171Z,4.40
2023-05-13T04:17:02.839Z,4.00
2023-05-13T04:19:30.590Z,4.47
2023-05-13T04:21:58.191Z,4.18
2023-05-13T04:24:25.787Z,4.50
2023-05-13T04:26:54.937Z,4.38
2023-05-13T04:29:22.515Z,4.55
2023-05-13T04:31:50.106Z,4.40
2023-05-13T04:34:17.786Z,4.40
2023-05-13T04:36:46.664Z,4.28
2023-05-13T04:39:14.198Z,4.13
2023-05-13T04:41:42.123Z,3.80
2023-05-13T04:44:09.762Z,4.32
2023-05-13T04:46:42.791Z,4.10
2023-05-13T04:49:10.363Z,4.30
2023-05-13T04:51:38.136Z,4.18
2023-05-13T04:54:09.200Z,3.90
2023-05-13T04:56:36.761Z,4.28
2023-05-13T04:59:04.364Z,4.27
2023-05-13T05:01:32.043Z,4.18
2023-05-13T05:03:59.824Z,4.35
2023-05-13T05:06:27.377Z,4.43
2023-05-13T05:08:55.141Z,4.03
2023-05-13T05:11:22.743Z,4.45
2023-05-13T05:13:50.632Z,4.50
2023-05-13T05:16:18.272Z,4.20
2023-05-13T05:18:45.998Z,4.05
2023-05-13T05:21:13.655Z,4.18
2023-05-13T05:23:41.440Z,4.67
2023-05-13T05:26:12.077Z,3.92
2023-05-13T05:28:40.436Z,4.50
2023-05-13T05:31:08.507Z,4.13
2023-05-13T05:33:36.570Z,4.20
2023-05-13T05:36:04.502Z,3.80
2023-05-13T05:38:32.222Z,3.93
2023-05-13T05:40:59.837Z,4.03
2023-05-13T05:43:27.410Z,3.85
2023-05-13T05:45:55.041Z,3.25
2023-05-13T05:48:22.887Z,3.83
2023-05-13T05:50:50.938Z,3.90
2023-05-13T05:53:18.550Z,3.70
2023-05-13T05:55:46.019Z,3.80
2023-05-13T05:58:17.167Z,4.00
2023-05-13T06:00:45.005Z,4.10
2023-05-13T06:03:12.794Z,4.28
2023-05-13T06:05:40.642Z,3.53
2023-05-13T06:08:08.340Z,4.13
2023-05-13T06:10:35.950Z,4.95
2023-05-13T06:13:03.491Z,3.80
2023-05-13T06:15:31.172Z,3.67
2023-05-13T06:17:58.728Z,3.50
2023-05-13T06:20:26.663Z,3.40
2023-05-13T06:22:54.222Z,4.70
2023-05-13T06:25:21.757Z,4.50
2023-05-13T06:27:49.368Z,3.85
2023-05-13T06:30:17.077Z,3.65
2023-05-13T06:32:53.460Z,3.95
2023-05-13T06:35:25.297Z,3.75
2023-05-13T06:37:52.868Z,4.13
2023-05-13T06:40:20.738Z,3.80
2023-05-13T06:42:48.388Z,3.53
2023-05-13T06:45:16.384Z,3.87
2023-05-13T06:47:44.076Z,3.70
2023-05-13T06:50:11.927Z,3.75
2023-05-13T06:52:41.871Z,3.40
2023-05-13T06:55:10.540Z,4.00
2023-05-13T06:57:43.288Z,3.53
2023-05-13T07:00:11.923Z,3.47
2023-05-13T07:02:39.579Z,4.07
2023-05-13T07:05:08.640Z,3.35
2023-05-13T07:07:38.055Z,3.30
2023-05-13T07:10:05.813Z,3.30
2023-05-13T07:12:33.692Z,3.58
2023-05-13T07:15:01.316Z,3.70
2023-05-13T07:17:29.153Z,3.70
2023-05-13T07:19:56.981Z,3.65
2023-05-13T07:22:24.629Z,3.45
2023-05-13T07:24:52.402Z,3.58
2023-05-13T07:27:20.113Z,3.90
2023-05-13T07:29:47.710Z,3.65
2023-05-13T07:32:15.410Z,4.22
2023-05-13T07:34:43.323Z,3.87
2023-05-13T07:37:10.920Z,3.90
2023-05-13T07:39:38.467Z,3.78
2023-05-13T07:42:06.324Z,3.85
2023-05-13T07:44:34.325Z,3.90
2023-05-13T07:47:02.105Z,3.83
2023-05-13T07:49:29.743Z,4.00
2023-05-13T07:51:57.468Z,4.30
2023-05-13T07:54:25.070Z,4.20
2023-05-13T07:56:52.708Z,3.83
2023-05-13T07:59:20.295Z,4.30
2023-05-13T08:01:47.920Z,3.75
2023-05-13T08:04:15.798Z,4.38
2023-05-13T08:06:43.558Z,3.95
2023-05-13T08:09:12.369Z,3.45
2023-05-13T08:11:39.941Z,3.67
2023-05-13T08:14:08.675Z,4.40
2023-05-13T08:16:36.692Z,3.63
2023-05-13T08:19:04.918Z,3.97
2023-05-13T08:21:32.819Z,3.67
2023-05-13T08:24:00.499Z,4.10
2023-05-13T08:26:28.965Z,3.75
2023-05-13T08:28:58.735Z,3.55
2023-05-13T08:31:26.861Z,3.60
2023-05-13T08:33:54.498Z,3.42
2023-05-13T08:36:23.061Z,3.60
2023-05-13T08:38:50.732Z,3.45
2023-05-13T08:41:19.895Z,2.87
2023-05-13T08:43:49.412Z,3.90
2023-05-13T08:46:17.416Z,3.72
2023-05-13T08:48:45.052Z,3.67
2023-05-13T08:51:12.719Z,4.05
2023-05-13T08:53:41.180Z,4.15
2023-05-13T08:56:09.875Z,3.60
2023-05-13T08:58:37.705Z,3.75
2023-05-13T09:01:05.529Z,3.80
2023-05-13T09:03:33.445Z,3.90
2023-05-13T09:06:01.680Z,3.50
2023-05-13T09:08:29.530Z,3.60
2023-05-13T09:10:57.157Z,4.22
2023-05-13T09:13:24.783Z,3.50
2023-05-13T09:15:52.445Z,3.75
2023-05-13T09:18:20.309Z,3.50
2023-05-13T09:20:48.284Z,3.90
2023-05-13T09:23:16.143Z,4.50
2023-05-13T09:25:43.879Z,3.92
2023-05-13T09:28:14.877Z,4.43
2023-05-13T09:30:45.623Z,4.00
2023-05-13T09:33:14.696Z,4.15
2023-05-13T09:35:44.167Z,4.35
2023-05-13T09:38:21.526Z,4.30
2023-05-13T09:40:52.811Z,4.43
2023-05-13T09:43:21.562Z,4.82
2023-05-13T09:45:50.192Z,4.90
2023-05-13T09:48:17.821Z,4.60
2023-05-13T09:50:49.937Z,4.82
2023-05-13T09:53:21.225Z,4.63
2023-05-13T09:55:49.022Z,4.50
2023-05-13T09:58:16.653Z,4.78
2023-05-13T10:00:45.239Z,4.70
2023-05-13T10:03:13.333Z,4.50
2023-05-13T10:05:41.185Z,4.82
2023-05-13T10:08:12.247Z,4.85
2023-05-13T10:10:40.056Z,5.10
2023-05-13T10:13:10.968Z,4.65
2023-05-13T10:15:42.254Z,4.25
2023-05-13T10:18:09.919Z,4.63
2023-05-13T10:20:38.062Z,4.70
2023-05-13T10:23:06.747Z,4.82
2023-05-13T10:25:35.649Z,4.80
2023-05-13T10:28:04.342Z,4.97
2023-05-13T10:30:32.667Z,4.65
2023-05-13T10:33:01.596Z,4.60
2023-05-13T10:35:30.260Z,4.60
2023-05-13T10:38:17.565Z,5.38
2023-05-13T10:40:57.573Z,4.85
2023-05-13T10:43:26.218Z,4.82
2023-05-13T10:45:59.944Z,4.60
2023-05-13T10:48:27.989Z,4.70
2023-05-13T10:50:56.588Z,4.85
2023-05-13T10:53:31.002Z,4.90
2023-05-13T10:55:59.456Z,4.38
2023-05-13T10:58:32.730Z,4.95
2023-05-13T11:01:16.391Z,4.93
2023-05-13T11:03:52.039Z,4.72
2023-05-13T11:06:21.486Z,4.47
2023-05-13T11:08:49.705Z,4.30
2023-05-13T11:11:23.187Z,4.33
2023-05-13T11:13:54.166Z,4.45
2023-05-13T11:16:22.828Z,4.30
2023-05-13T11:18:50.498Z,4.60
2023-05-13T11:21:18.073Z,5.28
2023-05-13T11:23:57.099Z,4.68
2023-05-13T11:26:24.672Z,4.70
2023-05-13T11:29:07.446Z,4.55
2023-05-13T11:31:51.381Z,4.38
2023-05-13T11:34:19.236Z,4.70
2023-05-13T11:36:47.932Z,4.83
2023-05-13T11:39:18.350Z,4.20
2023-05-13T11:41:51.851Z,4.50
2023-05-13T11:44:20.579Z,3.93
2023-05-13T11:46:51.536Z,4.90
2023-05-13T11:49:31.216Z,4.45
2023-05-13T11:51:59.851Z,4.30
2023-05-13T11:54:28.080Z,4.70
2023-05-13T11:56:55.640Z,4.63
2023-05-13T11:59:23.490Z,4.20
2023-05-13T12:02:01.064Z,4.77
2023-05-13T12:04:29.669Z,4.70
2023-05-13T12:06:58.177Z,4.40
2023-05-13T12:09:25.868Z,4.23
2023-05-13T12:11:53.968Z,4.72
2023-05-13T12:14:21.764Z,4.90
2023-05-13T12:16:49.478Z,4.72
2023-05-13T12:19:17.071Z,4.85
2023-05-13T12:21:44.686Z,4.70
2023-05-13T12:24:18.820Z,5.28
2023-05-13T12:26:46.589Z,4.60
2023-05-13T12:29:14.704Z,5.20
2023-05-13T12:32:03.657Z,5.60
2023-05-13T12:34:34.513Z,5.30
2023-05-13T12:37:14.411Z,5.03
2023-05-13T12:39:42.266Z,5.30
2023-05-13T12:42:16.336Z,5.20
2023-05-13T12:44:44.771Z,5.20
2023-05-13T12:47:13.947Z,5.40
2023-05-13T12:49:54.219Z,5.47
2023-05-13T12:52:22.110Z,5.13
2023-05-13T12:54:49.793Z,5.30
2023-05-13T12:57:17.907Z,5.05
2023-05-13T12:59:46.028Z,5.73
2023-05-13T13:02:13.835Z,5.28
2023-05-13T13:04:41.414Z,5.32
2023-05-13T13:07:12.736Z,5.25
2023-05-13T13:09:40.459Z,5.00
2023-05-13T13:12:08.158Z,5.10
2023-05-13T13:14:35.986Z,5.05
2023-05-13T13:17:03.711Z,5.40
2023-05-13T13:19:31.768Z,4.53
2023-05-13T13:21:59.467Z,4.90
2023-05-13T13:24:26.980Z,4.70
2023-05-13T13:26:55.670Z,4.82
2023-05-13T13:29:24.069Z,5.18
2023-05-13T13:31:52.538Z,5.10
2023-05-13T13:34:20.107Z,5.10
2023-05-13T13:36:47.793Z,5.13
2023-05-13T13:39:15.437Z,4.95
2023-05-13T13:41:43.349Z,5.17
2023-05-13T13:44:11.537Z,5.15
2023-05-13T13:46:39.134Z,5.68
2023-05-13T13:49:22.666Z,5.00
2023-05-13T13:51:51.033Z,4.57
2023-05-13T13:54:18.762Z,4.97
2023-05-13T13:56:46.365Z,4.78
2023-05-13T13:59:13.993Z,4.88
2023-05-13T14:01:42.426Z,4.60
2023-05-13T14:04:17.513Z,5.00
2023-05-13T14:06:45.563Z,4.67
2023-05-13T14:09:13.176Z,5.40
2023-05-13T14:11:40.897Z,4.57
2023-05-13T14:14:09.126Z,4.63
2023-05-13T14:16:37.044Z,4.70
2023-05-13T14:19:04.749Z,5.50
2023-05-13T14:21:35.172Z,4.97
2023-05-13T14:24:02.949Z,4.85
2023-05-13T14:26:30.612Z,4.78
2023-05-13T14:28:58.243Z,4.70
2023-05-13T14:31:25.968Z,4.40
2023-05-13T14:33:53.570Z,4.10
2023-05-13T14:36:22.571Z,4.07
2023-05-13T14:38:50.214Z,4.17
2023-05-13T14:41:20.037Z,4.35
2023-05-13T14:43:47.988Z,4.53
2023-05-13T14:46:15.691Z,4.40
2023-05-13T14:48:43.412Z,5.22
2023-05-13T14:51:12.446Z,5.00
2023-05-13T14:53:40.392Z,4.70
2023-05-13T14:56:08.180Z,4.57
2023-05-13T14:58:36.363Z,4.30
2023-05-13T15:01:04.043Z,4.30
2023-05-13T15:03:31.700Z,4.60
2023-05-13T15:05:59.293Z,4.57
2023-05-13T15:08:26.884Z,5.03
2023-05-13T15:10:54.491Z,4.40
2023-05-13T15:13:22.226Z,4.40
2023-05-13T15:15:49.863Z,4.13
2023-05-13T15:18:20.465Z,4.35
2023-05-13T15:20:48.071Z,4.27
2023-05-13T15:23:15.785Z,4.13
2023-05-13T15:25:43.398Z,4.43
2023-05-13T15:28:10.963Z,4.00
2023-05-13T15:30:38.694Z,3.58
2023-05-13T15:33:06.242Z,3.92
2023-05-13T15:35:34.584Z,4.15
2023-05-13T15:38:02.220Z,4.40
2023-05-13T15:40:30.048Z,4.20
2023-05-13T15:42:57.672Z,4.50
2023-05-13T15:45:25.262Z,4.43
2023-05-13T15:47:53.245Z,4.43
2023-05-13T15:50:21.104Z,4.00
2023-05-13T15:52:48.867Z,5.10
2023-05-13T15:55:16.421Z,4.78
2023-05-13T15:57:44.674Z,4.35
2023-05-13T16:00:12.569Z,5.00
2023-05-13T16:02:41.622Z,5.50
2023-05-13T16:05:09.316Z,5.35
2023-05-13T16:07:37.047Z,5.72
2023-05-13T16:10:05.042Z,4.90
2023-05-13T16:12:32.714Z,5.45
2023-05-13T16:15:00.867Z,5.25
2023-05-13T16:17:28.589Z,4.97
2023-05-13T16:19:56.236Z,5.18
2023-05-13T16:22:27.564Z,5.20
2023-05-13T16:24:56.831Z,5.05
2023-05-13T16:27:24.628Z,5.32
2023-05-13T16:29:52.273Z,5.20
2023-05-13T16:32:19.852Z,5.40
2023-05-13T16:34:47.405Z,5.00
2023-05-13T16:37:15.299Z,4.38
2023-05-13T16:39:42.951Z,5.47
2023-05-13T16:42:10.778Z,4.87
2023-05-13T16:44:38.399Z,4.97
2023-05-13T16:47:09.343Z,5.40
2023-05-13T16:49:37.234Z,4.93
2023-05-13T16:52:05.262Z,5.53
2023-05-13T16:54:33.526Z,5.43
2023-05-13T16:57:01.318Z,4.78
2023-05-13T16:59:29.011Z,4.07
2023-05-13T17:01:56.686Z,4.07
2023-05-13T17:04:24.532Z,4.03
2023-05-13T17:06:53.575Z,4.07
2023-05-13T17:09:21.388Z,3.97
2023-05-13T17:11:48.926Z,4.20
2023-05-13T17:14:18.879Z,4.07
2023-05-13T17:16:46.790Z,3.95
2023-05-13T17:19:14.688Z,4.40
2023-05-13T17:21:42.493Z,4.20
2023-05-13T17:24:10.080Z,4.43
2023-05-13T17:26:38.974Z,4.60
2023-05-13T17:29:06.776Z,4.35
2023-05-13T17:31:34.441Z,4.30
2023-05-13T17:34:02.195Z,3.97
2023-05-13T17:36:29.826Z,4.38
2023-05-13T17:38:57.512Z,4.60
2023-05-13T17:41:29.801Z,4.20
2023-05-13T17:43:57.352Z,4.35
2023-05-13T17:46:28.016Z,4.45
2023-05-13T17:48:55.990Z,4.07
2023-05-13T17:51:23.574Z,3.97
2023-05-13T17:53:51.330Z,3.85
2023-05-13T17:56:18.926Z,3.70
2023-05-13T17:58:46.684Z,3.30
2023-05-13T18:01:14.350Z,4.00
2023-05-13T18:03:42.058Z,3.60
2023-05-13T18:06:09.783Z,3.47
2023-05-13T18:08:37.696Z,4.45
2023-05-13T18:11:06.617Z,3.55
2023-05-13T18:13:35.998Z,3.40
2023-05-13T18:16:06.096Z,3.30
2023-05-13T18:18:33.797Z,3.50
2023-05-13T18:21:03.108Z,3.20
2023-05-13T18:23:31.019Z,2.90
2023-05-13T18:25:58.638Z,3.20
2023-05-13T18:28:26.306Z,3.50
2023-05-13T18:30:53.909Z,2.85
2023-05-13T18:33:21.900Z,3.60
2023-05-13T18:35:49.511Z,2.92
2023-05-13T18:38:17.147Z,3.13
2023-05-13T18:40:45.149Z,2.78
2023-05-13T18:43:16.110Z,3.47
2023-05-13T18:45:43.881Z,3.33
2023-05-13T18:48:11.667Z,3.60
2023-05-13T18:50:40.290Z,3.20
2023-05-13T18:53:07.885Z,3.37
2023-05-13T18:55:36.223Z,3.17
2023-05-13T18:58:04.530Z,3.17
2023-05-13T19:00:35.041Z,3.80
2023-05-13T19:03:02.800Z,3.80
2023-05-13T19:05:33.536Z,3.50
2023-05-13T19:08:01.172Z,3.67
2023-05-13T19:10:28.779Z,4.10
2023-05-13T19:13:00.364Z,3.40
2023-05-13T19:15:31.368Z,3.58
2023-05-13T19:18:00.290Z,4.00
2023-05-13T19:20:28.057Z,4.10
2023-05-13T19:22:57.619Z,4.03
2023-05-13T19:25:25.580Z,4.32
2023-05-13T19:27:53.242Z,3.77
2023-05-13T19:30:21.944Z,3.72
2023-05-13T19:32:49.736Z,4.10
2023-05-13T19:35:17.514Z,4.27
2023-05-13T19:37:45.520Z,3.63
2023-05-13T19:40:18.449Z,4.22
2023-05-13T19:42:46.188Z,3.53
2023-05-13T19:45:13.702Z,3.80
2023-05-13T19:47:41.387Z,3.53
2023-05-13T19:50:09.149Z,3.63
2023-05-13T19:52:36.754Z,3.80
2023-05-13T19:55:04.530Z,4.40
2023-05-13T19:57:32.362Z,4.05
2023-05-13T19:59:59.978Z,4.20
2023-05-13T20:02:27.608Z,4.40
2023-05-13T20:04:58.122Z,4.05
2023-05-13T20:07:25.805Z,4.03
2023-05-13T20:09:53.347Z,4.18
2023-05-13T20:12:21.605Z,3.92
2023-05-13T20:14:51.765Z,3.40
2023-05-13T20:17:19.958Z,3.40
2023-05-13T20:19:47.962Z,3.58
2023-05-13T20:22:16.510Z,3.95
2023-05-13T20:24:44.374Z,3.60
2023-05-13T20:27:11.948Z,3.45
2023-05-13T20:29:39.991Z,3.78
2023-05-13T20:32:07.890Z,3.87
2023-05-13T20:34:35.738Z,4.07
2023-05-13T20:37:03.405Z,4.22
2023-05-13T20:39:31.041Z,3.95
2023-05-13T20:41:58.637Z,4.20
2023-05-13T20:44:26.139Z,4.70
2023-05-13T20:46:53.991Z,4.55
2023-05-13T20:49:21.712Z,4.27
2023-05-13T20:51:49.622Z,4.28
2023-05-13T20:54:17.237Z,4.10
2023-05-13T20:56:44.850Z,4.23
2023-05-13T20:59:15.490Z,3.88
2023-05-13T21:01:47.469Z,4.00
2023-05-13T21:04:15.549Z,3.92
2023-05-13T21:06:43.219Z,4.43
2023-05-13T21:09:10.849Z,3.88
2023-05-13T21:11:38.422Z,4.20
2023-05-13T21:14:06.063Z,4.40
2023-05-13T21:16:34.054Z,4.38
2023-05-13T21:19:01.766Z,4.60
2023-05-13T21:21:29.427Z,4.53
2023-05-13T21:23:57.047Z,5.22
2023-05-13T21:26:25.876Z,4.68
2023-05-13T21:28:53.707Z,5.28
2023-05-13T21:31:21.285Z,4.70
2023-05-13T21:33:49.134Z,5.65
2023-05-13T21:36:16.738Z,5.90
2023-05-13T21:38:44.344Z,5.73
2023-05-13T21:41:11.911Z,5.43
2023-05-13T21:43:39.467Z,5.00
2023-05-13T21:46:07.257Z,4.97
2023-05-13T21:48:34.863Z,5.13
2023-05-13T21:51:02.513Z,5.78
2023-05-13T21:53:30.788Z,5.00
2023-05-13T21:56:00.327Z,4.50
2023-05-13T21:58:28.179Z,4.82
2023-05-13T22:00:55.911Z,4.93
2023-05-13T22:03:23.575Z,4.60
2023-05-13T22:05:51.204Z,4.13
2023-05-13T22:08:19.028Z,4.20
2023-05-13T22:10:46.579Z,3.47
2023-05-13T22:13:14.200Z,3.72
2023-05-13T22:15:41.809Z,3.80
2023-05-13T22:18:09.662Z,3.42
2023-05-13T22:20:37.247Z,3.27
2023-05-13T22:23:04.828Z,3.80
2023-05-13T22:25:32.386Z,3.33
2023-05-13T22:27:59.960Z,3.43
2023-05-13T22:30:27.526Z,3.38
2023-05-13T22:32:56.520Z,3.30
2023-05-13T22:35:24.152Z,2.90
2023-05-13T22:37:52.742Z,3.05
2023-05-13T22:40:20.340Z,2.92
2023-05-13T22:42:47.924Z,3.10
2023-05-13T22:45:15.560Z,2.80
2023-05-13T22:47:43.167Z,3.20
2023-05-13T22:50:12.390Z,3.67
2023-05-13T22:52:40.473Z,3.10
2023-05-13T22:55:08.799Z,2.90
2023-05-13T22:57:36.432Z,3.03
2023-05-13T23:00:04.655Z,3.20
2023-05-13T23:02:32.267Z,3.30
2023-05-13T23:04:59.831Z,2.90
2023-05-13T23:07:27.432Z,3.30
2023-05-13T23:09:55.004Z,3.30
2023-05-13T23:12:22.679Z,3.08
2023-05-13T23:14:51.009Z,3.72
2023-05-13T23:17:18.649Z,3.50
2023-05-13T23:19:46.147Z,3.00
2023-05-13T23:22:13.638Z,3.40
2023-05-13T23:24:41.257Z,3.30
2023-05-13T23:27:08.906Z,3.15
2023-05-13T23:29:36.697Z,3.90
2023-05-13T23:32:06.557Z,3.95
2023-05-13T23:34:34.730Z,3.43
2023-05-13T23:37:02.315Z,3.42
2023-05-13T23:39:29.931Z,3.17
2023-05-13T23:41:57.514Z,3.33
2023-05-13T23:44:25.170Z,3.30
2023-05-13T23:46:52.748Z,3.05
2023-05-13T23:49:20.331Z,3.33
2023-05-13T23:51:47.935Z,2.72
2023-05-13T23:54:15.475Z,2.85
2023-05-13T23:56:44.124Z,3.05
2023-05-13T23:59:11.765Z,3.20
